createdAt,value
2018-05-07T00:00:31.244Z,1016.33
2018-05-07T00:01:41.206Z,1016.35
2018-05-07T00:02:51.167Z,1016.34
2018-05-07T00:03:59.814Z,1016.32
2018-05-07T00:05:08.982Z,1016.35
2018-05-07T00:06:18.166Z,1016.32
2018-05-07T00:07:27.339Z,1016.32
2018-05-07T00:08:36.571Z,1016.32
2018-05-07T00:09:46.006Z,1016.3
2018-05-07T00:10:55.699Z,1016.31
2018-05-07T00:12:04.647Z,1016.31
2018-05-07T00:13:13.801Z,1016.29
2018-05-07T00:14:23.276Z,1016.3
2018-05-07T00:15:32.180Z,1016.28
2018-05-07T00:16:41.826Z,1016.26
2018-05-07T00:17:51.004Z,1016.22
2018-05-07T00:19:00.426Z,1016.25
2018-05-07T00:20:09.870Z,1016.22
2018-05-07T00:21:19.573Z,1016.23
2018-05-07T00:22:28.740Z,1016.24
2018-05-07T00:23:39.117Z,1016.23
2018-05-07T00:24:48.276Z,1016.18
2018-05-07T00:25:57.985Z,1016.24
2018-05-07T00:27:07.438Z,1016.22
2018-05-07T00:28:16.680Z,1016.21
2018-05-07T00:29:26.705Z,1016.23
2018-05-07T00:30:35.368Z,1016.23
2018-05-07T00:31:44.528Z,1016.19
2018-05-07T00:32:54.203Z,1016.17
2018-05-07T00:34:03.116Z,1016.19
2018-05-07T00:35:12.818Z,1016.14
2018-05-07T00:36:22.265Z,1016.13
2018-05-07T00:37:31.707Z,1016.14
2018-05-07T00:38:41.140Z,1016.17
2018-05-07T00:39:50.336Z,1016.13
2018-05-07T00:41:00.281Z,1016.16
2018-05-07T00:42:09.456Z,1016.16
2018-05-07T00:43:18.630Z,1016.17
2018-05-07T00:44:27.811Z,1016.13
2018-05-07T00:45:37.228Z,1016.14
2018-05-07T00:46:46.927Z,1016.16
2018-05-07T00:47:56.362Z,1016.15
2018-05-07T00:49:05.805Z,1016.12
2018-05-07T00:50:14.715Z,1016.15
2018-05-07T00:51:23.915Z,1016.14
2018-05-07T00:52:33.058Z,1016.1
2018-05-07T00:53:42.229Z,1016.08
2018-05-07T00:54:51.668Z,1016.12
2018-05-07T00:56:01.085Z,1016.14
2018-05-07T00:57:10.832Z,1016.16
2018-05-07T00:58:20.531Z,1016.16
2018-05-07T00:59:29.457Z,1016.15
2018-05-07T01:00:38.638Z,1016.14
2018-05-07T01:01:48.314Z,1016.15
2018-05-07T01:02:57.752Z,1016.12
2018-05-07T01:04:07.248Z,1016.12
2018-05-07T01:05:16.938Z,1016.17
2018-05-07T01:06:26.702Z,1016.14
2018-05-07T01:07:35.674Z,1016.17
2018-05-07T01:08:44.877Z,1016.18
2018-05-07T01:09:54.291Z,1016.13
2018-05-07T01:11:03.731Z,1016.13
2018-05-07T01:12:12.907Z,1016.15
2018-05-07T01:13:22.077Z,1016.09
2018-05-07T01:14:32.455Z,1016.19
2018-05-07T01:15:42.140Z,1016.16
2018-05-07T01:16:51.313Z,1016.17
2018-05-07T01:18:01.278Z,1016.18
2018-05-07T01:19:10.444Z,1016.2
2018-05-07T01:20:20.113Z,1016.18
2018-05-07T01:21:29.278Z,1016.19
2018-05-07T01:22:38.457Z,1016.18
2018-05-07T01:23:48.172Z,1016.18
2018-05-07T01:24:57.354Z,1016.18
2018-05-07T01:26:06.830Z,1016.2
2018-05-07T01:27:16.264Z,1016.18
2018-05-07T01:28:25.443Z,1016.17
2018-05-07T01:29:34.880Z,1016.22
2018-05-07T01:30:44.310Z,1016.23
2018-05-07T01:31:53.485Z,1016.2
2018-05-07T01:33:02.939Z,1016.21
2018-05-07T01:34:11.855Z,1016.23
2018-05-07T01:35:21.288Z,1016.21
2018-05-07T01:36:31.073Z,1016.21
2018-05-07T01:37:40.495Z,1016.23
2018-05-07T01:38:50.203Z,1016.26
2018-05-07T01:39:59.125Z,1016.25
2018-05-07T01:41:08.835Z,1016.24
2018-05-07T01:42:18.284Z,1016.26
2018-05-07T01:43:28.225Z,1016.21
2018-05-07T01:44:37.142Z,1016.23
2018-05-07T01:45:46.570Z,1016.16
2018-05-07T01:46:55.743Z,1016.18
2018-05-07T01:48:05.448Z,1016.17
2018-05-07T01:49:15.141Z,1016.2
2018-05-07T01:50:24.419Z,1016.19
2018-05-07T01:51:33.627Z,1016.16
2018-05-07T01:52:43.577Z,1016.17
2018-05-07T01:53:53.281Z,1016.1
2018-05-07T01:55:02.731Z,1016.12
2018-05-07T01:56:12.177Z,1016.11
2018-05-07T01:57:21.108Z,1016.1
2018-05-07T01:58:30.274Z,1016.14
2018-05-07T01:59:39.701Z,1016.13
2018-05-07T02:00:49.114Z,1016.15
2018-05-07T02:01:58.595Z,1016.12
2018-05-07T02:03:07.779Z,1016.14
2018-05-07T02:04:17.455Z,1016.14
2018-05-07T02:05:27.133Z,1016.11
2018-05-07T02:06:36.559Z,1016.1
2018-05-07T02:07:46.260Z,1016.08
2018-05-07T02:08:55.965Z,1016.1
2018-05-07T02:10:05.135Z,1016.07
2018-05-07T02:11:14.294Z,1016.03
2018-05-07T02:12:23.756Z,1016.02
2018-05-07T02:13:32.709Z,1016.02
2018-05-07T02:14:42.154Z,1015.98
2018-05-07T02:15:51.342Z,1016.02
2018-05-07T02:17:00.813Z,1016.01
2018-05-07T02:18:10.499Z,1016.05
2018-05-07T02:19:19.924Z,1016.08
2018-05-07T02:20:28.578Z,1016.1
2018-05-07T02:21:38.048Z,1016.06
2018-05-07T02:22:46.696Z,1016.08
2018-05-07T02:23:55.849Z,1016.04
2018-05-07T02:25:05.807Z,1016.08
2018-05-07T02:26:14.978Z,1016.04
2018-05-07T02:27:24.165Z,1016.05
2018-05-07T02:28:33.578Z,1016.05
2018-05-07T02:29:42.230Z,1016.05
2018-05-07T02:30:51.659Z,1016.04
2018-05-07T02:32:01.351Z,1016.04
2018-05-07T02:33:10.535Z,1016.09
2018-05-07T02:34:20.291Z,1016.06
2018-05-07T02:35:29.456Z,1016.06
2018-05-07T02:36:38.915Z,1016.04
2018-05-07T02:37:48.599Z,1016.04
2018-05-07T02:38:58.149Z,1016
2018-05-07T02:40:08.132Z,1016.02
2018-05-07T02:41:17.563Z,1016.02
2018-05-07T02:42:27.248Z,1016
2018-05-07T02:43:37.185Z,1016.01
2018-05-07T02:44:46.339Z,1016.02
2018-05-07T02:45:55.779Z,1016.03
2018-05-07T02:47:05.729Z,1016.01
2018-05-07T02:48:14.895Z,1016.02
2018-05-07T02:49:24.572Z,1016.01
2018-05-07T02:50:34.526Z,1016.02
2018-05-07T02:51:43.956Z,1015.97
2018-05-07T02:52:53.121Z,1015.97
2018-05-07T02:54:02.053Z,1015.98
2018-05-07T02:55:10.744Z,1016.01
2018-05-07T02:56:20.437Z,1015.98
2018-05-07T02:57:30.114Z,1015.94
2018-05-07T02:58:39.546Z,1015.95
2018-05-07T02:59:49.249Z,1015.97
2018-05-07T03:00:58.443Z,1015.96
2018-05-07T03:02:07.414Z,1015.96
2018-05-07T03:03:16.614Z,1015.98
2018-05-07T03:04:26.673Z,1015.99
2018-05-07T03:05:35.875Z,1015.99
2018-05-07T03:06:45.557Z,1015.98
2018-05-07T03:07:55.039Z,1015.97
2018-05-07T03:09:04.217Z,1015.97
2018-05-07T03:10:13.641Z,1015.98
2018-05-07T03:11:23.653Z,1015.98
2018-05-07T03:12:33.101Z,1015.98
2018-05-07T03:13:42.544Z,1015.97
2018-05-07T03:14:51.993Z,1015.99
2018-05-07T03:16:01.930Z,1015.99
2018-05-07T03:17:11.901Z,1015.95
2018-05-07T03:18:21.113Z,1015.96
2018-05-07T03:19:30.779Z,1015.94
2018-05-07T03:20:40.236Z,1015.95
2018-05-07T03:21:49.674Z,1015.91
2018-05-07T03:22:59.353Z,1015.9
2018-05-07T03:24:08.531Z,1015.92
2018-05-07T03:25:17.440Z,1015.88
2018-05-07T03:26:26.645Z,1015.89
2018-05-07T03:27:35.813Z,1015.86
2018-05-07T03:28:45.250Z,1015.86
2018-05-07T03:29:54.415Z,1015.9
2018-05-07T03:31:04.132Z,1015.87
2018-05-07T03:32:13.845Z,1015.9
2018-05-07T03:33:22.771Z,1015.86
2018-05-07T03:34:32.207Z,1015.88
2018-05-07T03:35:41.144Z,1015.95
2018-05-07T03:36:50.844Z,1015.89
2018-05-07T03:38:00.533Z,1015.88
2018-05-07T03:39:09.494Z,1015.89
2018-05-07T03:40:19.443Z,1015.84
2018-05-07T03:41:29.017Z,1015.83
2018-05-07T03:42:38.447Z,1015.84
2018-05-07T03:43:47.641Z,1015.83
2018-05-07T03:44:57.059Z,1015.86
2018-05-07T03:46:06.530Z,1015.79
2018-05-07T03:47:16.231Z,1015.81
2018-05-07T03:48:25.433Z,1015.8
2018-05-07T03:49:34.910Z,1015.76
2018-05-07T03:50:44.337Z,1015.76
2018-05-07T03:51:53.572Z,1015.75
2018-05-07T03:53:02.489Z,1015.74
2018-05-07T03:54:12.185Z,1015.74
2018-05-07T03:55:21.623Z,1015.74
2018-05-07T03:56:30.806Z,1015.72
2018-05-07T03:57:39.985Z,1015.73
2018-05-07T03:58:49.411Z,1015.72
2018-05-07T03:59:58.581Z,1015.7
2018-05-07T04:01:07.743Z,1015.7
2018-05-07T04:02:17.178Z,1015.69
2018-05-07T04:03:26.158Z,1015.68
2018-05-07T04:04:35.869Z,1015.66
2018-05-07T04:05:45.318Z,1015.66
2018-05-07T04:06:54.207Z,1015.66
2018-05-07T04:08:03.676Z,1015.68
2018-05-07T04:09:13.403Z,1015.67
2018-05-07T04:10:22.835Z,1015.64
2018-05-07T04:11:32.530Z,1015.64
2018-05-07T04:12:41.444Z,1015.62
2018-05-07T04:13:50.874Z,1015.62
2018-05-07T04:14:59.783Z,1015.59
2018-05-07T04:16:09.464Z,1015.62
2018-05-07T04:17:19.422Z,1015.58
2018-05-07T04:18:28.909Z,1015.55
2018-05-07T04:19:38.074Z,1015.57
2018-05-07T04:20:47.762Z,1015.62
2018-05-07T04:21:57.179Z,1015.66
2018-05-07T04:23:06.175Z,1015.65
2018-05-07T04:24:15.348Z,1015.67
2018-05-07T04:25:24.520Z,1015.66
2018-05-07T04:26:33.961Z,1015.64
2018-05-07T04:27:43.112Z,1015.61
2018-05-07T04:28:52.261Z,1015.67
2018-05-07T04:30:01.686Z,1015.63
2018-05-07T04:31:11.163Z,1015.62
2018-05-07T04:32:20.335Z,1015.62
2018-05-07T04:33:29.782Z,1015.62
2018-05-07T04:34:39.572Z,1015.65
2018-05-07T04:35:49.241Z,1015.65
2018-05-07T04:36:58.435Z,1015.71
2018-05-07T04:38:07.332Z,1015.68
2018-05-07T04:39:16.259Z,1015.67
2018-05-07T04:40:25.488Z,1015.67
2018-05-07T04:41:34.671Z,1015.68
2018-05-07T04:42:44.103Z,1015.68
2018-05-07T04:43:53.820Z,1015.67
2018-05-07T04:45:03.248Z,1015.66
2018-05-07T04:46:12.677Z,1015.67
2018-05-07T04:47:21.583Z,1015.65
2018-05-07T04:48:31.344Z,1015.63
2018-05-07T04:49:40.545Z,1015.62
2018-05-07T04:50:49.982Z,1015.65
2018-05-07T04:51:59.229Z,1015.6
2018-05-07T04:53:08.421Z,1015.68
2018-05-07T04:54:18.119Z,1015.66
2018-05-07T04:55:27.332Z,1015.67
2018-05-07T04:56:36.843Z,1015.67
2018-05-07T04:57:46.011Z,1015.71
2018-05-07T04:58:55.173Z,1015.74
2018-05-07T05:00:04.353Z,1015.74
2018-05-07T05:01:13.278Z,1015.73
2018-05-07T05:02:22.442Z,1015.75
2018-05-07T05:03:32.402Z,1015.73
2018-05-07T05:04:41.839Z,1015.74
2018-05-07T05:05:51.544Z,1015.73
2018-05-07T05:07:01.524Z,1015.73
2018-05-07T05:08:10.726Z,1015.72
2018-05-07T05:09:19.920Z,1015.7
2018-05-07T05:10:29.872Z,1015.72
2018-05-07T05:11:39.573Z,1015.73
2018-05-07T05:12:49.269Z,1015.72
2018-05-07T05:13:58.725Z,1015.71
2018-05-07T05:15:07.888Z,1015.67
2018-05-07T05:16:17.575Z,1015.69
2018-05-07T05:17:27.258Z,1015.65
2018-05-07T05:18:37.195Z,1015.65
2018-05-07T05:19:46.408Z,1015.66
2018-05-07T05:20:55.580Z,1015.68
2018-05-07T05:22:05.654Z,1015.69
2018-05-07T05:23:15.140Z,1015.69
2018-05-07T05:24:24.847Z,1015.7
2018-05-07T05:25:34.279Z,1015.72
2018-05-07T05:26:43.480Z,1015.75
2018-05-07T05:27:52.936Z,1015.7
2018-05-07T05:29:02.453Z,1015.72
2018-05-07T05:30:12.140Z,1015.73
2018-05-07T05:31:21.829Z,1015.71
2018-05-07T05:32:31.002Z,1015.74
2018-05-07T05:33:40.680Z,1015.69
2018-05-07T05:34:50.381Z,1015.7
2018-05-07T05:36:00.069Z,1015.68
2018-05-07T05:37:09.000Z,1015.67
2018-05-07T05:38:18.948Z,1015.66
2018-05-07T05:39:28.124Z,1015.64
2018-05-07T05:40:37.321Z,1015.67
2018-05-07T05:41:47.284Z,1015.69
2018-05-07T05:42:56.978Z,1015.63
2018-05-07T05:44:06.669Z,1015.63
2018-05-07T05:45:16.357Z,1015.67
2018-05-07T05:46:25.770Z,1015.63
2018-05-07T05:47:34.966Z,1015.65
2018-05-07T05:48:44.397Z,1015.65
2018-05-07T05:49:54.199Z,1015.66
2018-05-07T05:51:03.958Z,1015.64
2018-05-07T05:52:13.187Z,1015.65
2018-05-07T05:53:22.617Z,1015.62
2018-05-07T05:54:32.025Z,1015.63
2018-05-07T05:55:41.218Z,1015.63
2018-05-07T05:56:50.405Z,1015.62
2018-05-07T05:57:59.869Z,1015.64
2018-05-07T05:59:09.341Z,1015.59
2018-05-07T06:00:19.034Z,1015.62
2018-05-07T06:01:28.457Z,1015.63
2018-05-07T06:02:38.137Z,1015.63
2018-05-07T06:03:47.849Z,1015.64
2018-05-07T06:04:57.485Z,1015.64
2018-05-07T06:06:06.143Z,1015.65
2018-05-07T06:07:16.076Z,1015.66
2018-05-07T06:08:25.254Z,1015.68
2018-05-07T06:09:34.944Z,1015.69
2018-05-07T06:10:44.368Z,1015.67
2018-05-07T06:11:53.279Z,1015.67
2018-05-07T06:13:02.183Z,1015.77
2018-05-07T06:14:11.387Z,1015.72
2018-05-07T06:15:20.041Z,1015.77
2018-05-07T06:16:29.284Z,1015.77
2018-05-07T06:17:38.997Z,1015.75
2018-05-07T06:18:48.159Z,1015.75
2018-05-07T06:19:57.323Z,1015.78
2018-05-07T06:21:06.736Z,1015.79
2018-05-07T06:22:16.626Z,1015.79
2018-05-07T06:23:25.788Z,1015.78
2018-05-07T06:24:35.217Z,1015.79
2018-05-07T06:25:44.944Z,1015.77
2018-05-07T06:26:53.871Z,1015.77
2018-05-07T06:28:03.321Z,1015.78
2018-05-07T06:29:12.531Z,1015.8
2018-05-07T06:30:22.462Z,1015.8
2018-05-07T06:31:31.161Z,1015.79
2018-05-07T06:32:40.605Z,1015.77
2018-05-07T06:33:49.803Z,1015.78
2018-05-07T06:34:58.971Z,1015.77
2018-05-07T06:36:09.101Z,1015.73
2018-05-07T06:37:18.338Z,1015.76
2018-05-07T06:38:27.535Z,1015.77
2018-05-07T06:39:36.479Z,1015.71
2018-05-07T06:40:45.393Z,1015.71
2018-05-07T06:41:54.844Z,1015.72
2018-05-07T06:43:04.319Z,1015.7
2018-05-07T06:44:13.502Z,1015.71
2018-05-07T06:45:22.412Z,1015.68
2018-05-07T06:46:31.391Z,1015.73
2018-05-07T06:47:41.132Z,1015.68
2018-05-07T06:48:50.910Z,1015.66
2018-05-07T06:50:00.332Z,1015.66
2018-05-07T06:51:09.501Z,1015.7
2018-05-07T06:52:19.205Z,1015.7
2018-05-07T06:53:28.643Z,1015.65
2018-05-07T06:54:37.816Z,1015.7
2018-05-07T06:55:46.979Z,1015.68
2018-05-07T06:56:56.455Z,1015.69
2018-05-07T06:58:05.356Z,1015.7
2018-05-07T06:59:14.502Z,1015.7
2018-05-07T07:00:23.926Z,1015.7
2018-05-07T07:01:33.074Z,1015.7
2018-05-07T07:02:42.701Z,1015.68
2018-05-07T07:03:53.196Z,1015.67
2018-05-07T07:05:02.637Z,1015.68
2018-05-07T07:06:12.064Z,1015.67
2018-05-07T07:07:21.556Z,1015.66
2018-05-07T07:08:32.011Z,1015.65
2018-05-07T07:09:42.887Z,1015.65
2018-05-07T07:10:51.576Z,1015.64
2018-05-07T07:12:00.485Z,1015.67
2018-05-07T07:13:09.905Z,1015.69
2018-05-07T07:14:19.342Z,1015.65
2018-05-07T07:15:29.080Z,1015.7
2018-05-07T07:16:38.977Z,1015.66
2018-05-07T07:17:48.683Z,1015.64
2018-05-07T07:18:57.847Z,1015.65
2018-05-07T07:20:07.006Z,1015.63
2018-05-07T07:21:16.711Z,1015.6
2018-05-07T07:22:26.131Z,1015.61
2018-05-07T07:23:36.062Z,1015.59
2018-05-07T07:24:45.502Z,1015.54
2018-05-07T07:25:54.975Z,1015.53
2018-05-07T07:27:04.630Z,1015.53
2018-05-07T07:28:14.370Z,1015.55
2018-05-07T07:29:24.166Z,1015.53
2018-05-07T07:30:33.388Z,1015.54
2018-05-07T07:31:42.551Z,1015.53
2018-05-07T07:32:51.746Z,1015.56
2018-05-07T07:34:01.453Z,1015.64
2018-05-07T07:35:11.663Z,1015.59
2018-05-07T07:36:20.833Z,1015.62
2018-05-07T07:37:30.536Z,1015.59
2018-05-07T07:38:39.706Z,1015.6
2018-05-07T07:39:49.131Z,1015.62
2018-05-07T07:40:58.298Z,1015.6
2018-05-07T07:42:07.453Z,1015.62
2018-05-07T07:43:16.615Z,1015.58
2018-05-07T07:44:26.138Z,1015.59
2018-05-07T07:45:35.574Z,1015.6
2018-05-07T07:46:45.265Z,1015.61
2018-05-07T07:47:54.701Z,1015.6
2018-05-07T07:49:03.859Z,1015.55
2018-05-07T07:50:13.024Z,1015.55
2018-05-07T07:51:22.715Z,1015.56
2018-05-07T07:52:32.201Z,1015.52
2018-05-07T07:53:41.733Z,1015.55
2018-05-07T07:54:51.710Z,1015.51
2018-05-07T07:56:00.620Z,1015.55
2018-05-07T07:57:09.790Z,1015.52
2018-05-07T07:58:19.495Z,1015.56
2018-05-07T07:59:28.975Z,1015.57
2018-05-07T08:00:38.137Z,1015.58
2018-05-07T08:01:47.294Z,1015.56
2018-05-07T08:02:56.740Z,1015.57
2018-05-07T08:04:06.190Z,1015.57
2018-05-07T08:05:16.133Z,1015.58
2018-05-07T08:06:25.040Z,1015.58
2018-05-07T08:07:34.463Z,1015.57
2018-05-07T08:08:44.134Z,1015.52
2018-05-07T08:09:53.558Z,1015.54
2018-05-07T08:11:02.971Z,1015.53
2018-05-07T08:12:12.461Z,1015.49
2018-05-07T08:13:22.463Z,1015.53
2018-05-07T08:14:31.953Z,1015.48
2018-05-07T08:15:41.050Z,1015.5
2018-05-07T08:16:51.018Z,1015.5
2018-05-07T08:18:00.251Z,1015.46
2018-05-07T08:19:09.962Z,1015.5
2018-05-07T08:20:19.379Z,1015.45
2018-05-07T08:21:28.810Z,1015.46
2018-05-07T08:22:38.499Z,1015.46
2018-05-07T08:23:47.944Z,1015.42
2018-05-07T08:24:57.113Z,1015.43
2018-05-07T08:26:06.343Z,1015.42
2018-05-07T08:27:15.549Z,1015.42
2018-05-07T08:28:24.754Z,1015.43
2018-05-07T08:29:33.986Z,1015.4
2018-05-07T08:30:42.647Z,1015.39
2018-05-07T08:31:51.843Z,1015.35
2018-05-07T08:33:01.530Z,1015.37
2018-05-07T08:34:10.723Z,1015.42
2018-05-07T08:35:20.153Z,1015.4
2018-05-07T08:36:29.862Z,1015.41
2018-05-07T08:37:39.773Z,1015.39
2018-05-07T08:38:48.945Z,1015.42
2018-05-07T08:39:58.107Z,1015.38
2018-05-07T08:41:07.779Z,1015.4
2018-05-07T08:42:17.240Z,1015.36
2018-05-07T08:43:27.190Z,1015.36
2018-05-07T08:44:36.676Z,1015.34
2018-05-07T08:45:45.827Z,1015.33
2018-05-07T08:46:55.249Z,1015.32
2018-05-07T08:48:04.161Z,1015.31
2018-05-07T08:49:13.364Z,1015.3
2018-05-07T08:50:22.353Z,1015.31
2018-05-07T08:51:31.788Z,1015.29
2018-05-07T08:52:41.284Z,1015.3
2018-05-07T08:53:51.771Z,1015.31
2018-05-07T08:55:00.684Z,1015.32
2018-05-07T08:56:09.604Z,1015.28
2018-05-07T08:57:19.076Z,1015.25
2018-05-07T08:58:28.567Z,1015.2
2018-05-07T08:59:38.305Z,1015.25
2018-05-07T09:00:47.516Z,1015.22
2018-05-07T09:01:56.662Z,1015.25
2018-05-07T09:03:06.595Z,1015.22
2018-05-07T09:04:16.050Z,1015.22
2018-05-07T09:05:25.855Z,1015.21
2018-05-07T09:06:35.060Z,1015.17
2018-05-07T09:07:44.481Z,1015.19
2018-05-07T09:08:53.130Z,1015.13
2018-05-07T09:10:02.812Z,1015.12
2018-05-07T09:11:11.994Z,1015.12
2018-05-07T09:12:20.638Z,1015.12
2018-05-07T09:13:29.801Z,1015.09
2018-05-07T09:14:39.159Z,1015.07
2018-05-07T09:15:48.931Z,1015.08
2018-05-07T09:16:58.627Z,1015.05
2018-05-07T09:18:07.808Z,1015.08
2018-05-07T09:19:17.244Z,1015.03
2018-05-07T09:20:26.959Z,1015.01
2018-05-07T09:21:36.378Z,1015
2018-05-07T09:22:46.064Z,1014.97
2018-05-07T09:23:55.223Z,1014.97
2018-05-07T09:25:04.406Z,1014.99
2018-05-07T09:26:14.094Z,1014.97
2018-05-07T09:27:23.248Z,1014.98
2018-05-07T09:28:32.954Z,1014.95
2018-05-07T09:29:42.135Z,1014.85
2018-05-07T09:30:51.317Z,1014.87
2018-05-07T09:32:00.725Z,1014.87
2018-05-07T09:33:10.155Z,1014.89
2018-05-07T09:34:18.805Z,1014.86
2018-05-07T09:35:28.745Z,1014.82
2018-05-07T09:36:38.433Z,1014.82
2018-05-07T09:37:48.383Z,1014.82
2018-05-07T09:38:57.284Z,1014.81
2018-05-07T09:40:06.719Z,1014.77
2018-05-07T09:41:16.403Z,1014.8
2018-05-07T09:42:25.571Z,1014.8
2018-05-07T09:43:34.743Z,1014.84
2018-05-07T09:44:44.428Z,1014.79
2018-05-07T09:45:54.175Z,1014.82
2018-05-07T09:47:03.342Z,1014.75
2018-05-07T09:48:12.784Z,1014.81
2018-05-07T09:49:23.331Z,1014.74
2018-05-07T09:50:32.771Z,1014.7
2018-05-07T09:51:42.275Z,1014.8
2018-05-07T09:52:51.463Z,1014.69
2018-05-07T09:54:00.894Z,1014.64
2018-05-07T09:55:10.328Z,1014.64
2018-05-07T09:56:19.751Z,1014.64
2018-05-07T09:57:29.185Z,1014.59
2018-05-07T09:58:38.927Z,1014.58
2018-05-07T09:59:48.100Z,1014.54
2018-05-07T10:00:57.290Z,1014.63
2018-05-07T10:02:06.209Z,1014.53
2018-05-07T10:03:15.658Z,1014.58
2018-05-07T10:04:25.080Z,1014.57
2018-05-07T10:05:34.256Z,1014.49
2018-05-07T10:06:43.443Z,1014.58
2018-05-07T10:07:53.124Z,1014.51
2018-05-07T10:09:02.555Z,1014.4
2018-05-07T10:10:12.526Z,1014.56
2018-05-07T10:11:22.221Z,1014.48
2018-05-07T10:12:31.841Z,1014.54
2018-05-07T10:13:41.270Z,1014.55
2018-05-07T10:14:50.957Z,1014.51
2018-05-07T10:16:00.811Z,1014.45
2018-05-07T10:17:10.302Z,1014.48
2018-05-07T10:18:19.821Z,1014.46
2018-05-07T10:19:29.540Z,1014.49
2018-05-07T10:20:38.980Z,1014.41
2018-05-07T10:21:48.400Z,1014.38
2018-05-07T10:22:57.851Z,1014.41
2018-05-07T10:24:07.558Z,1014.39
2018-05-07T10:25:17.864Z,1014.46
2018-05-07T10:26:26.790Z,1014.43
2018-05-07T10:27:35.965Z,1014.37
2018-05-07T10:28:45.682Z,1014.45
2018-05-07T10:29:54.723Z,1014.45
2018-05-07T10:31:04.505Z,1014.45
2018-05-07T10:32:13.936Z,1014.41
2018-05-07T10:33:23.106Z,1014.35
2018-05-07T10:34:33.082Z,1014.39
2018-05-07T10:35:42.247Z,1014.35
2018-05-07T10:36:51.470Z,1014.45
2018-05-07T10:38:00.913Z,1014.39
2018-05-07T10:39:09.934Z,1014.32
2018-05-07T10:40:19.362Z,1014.28
2018-05-07T10:41:28.823Z,1014.4
2018-05-07T10:42:38.089Z,1014.33
2018-05-07T10:43:48.072Z,1014.31
2018-05-07T10:44:57.251Z,1014.33
2018-05-07T10:46:06.987Z,1014.23
2018-05-07T10:47:16.670Z,1014.24
2018-05-07T10:48:25.834Z,1014.24
2018-05-07T10:49:35.040Z,1014.21
2018-05-07T10:50:43.961Z,1014.17
2018-05-07T10:51:53.125Z,1014.17
2018-05-07T10:53:02.044Z,1014.22
2018-05-07T10:54:11.233Z,1014.17
2018-05-07T10:55:20.667Z,1014.13
2018-05-07T10:56:30.093Z,1014.11
2018-05-07T10:57:39.787Z,1014.15
2018-05-07T10:58:49.239Z,1014.1
2018-05-07T10:59:58.424Z,1014.07
2018-05-07T11:01:07.320Z,1014.08
2018-05-07T11:02:16.505Z,1014.01
2018-05-07T11:03:25.407Z,1014.02
2018-05-07T11:04:34.838Z,1014
2018-05-07T11:05:44.025Z,1013.93
2018-05-07T11:06:53.458Z,1013.93
2018-05-07T11:08:02.363Z,1013.94
2018-05-07T11:09:11.324Z,1013.98
2018-05-07T11:10:20.509Z,1013.94
2018-05-07T11:11:29.939Z,1013.92
2018-05-07T11:12:38.885Z,1013.87
2018-05-07T11:13:48.584Z,1013.82
2018-05-07T11:14:57.810Z,1013.77
2018-05-07T11:16:07.090Z,1013.81
2018-05-07T11:17:16.373Z,1013.77
2018-05-07T11:18:25.885Z,1013.71
2018-05-07T11:19:35.642Z,1013.73
2018-05-07T11:20:45.660Z,1013.75
2018-05-07T11:21:55.345Z,1013.79
2018-05-07T11:23:04.761Z,1013.75
2018-05-07T11:24:13.937Z,1013.73
2018-05-07T11:25:23.626Z,1013.73
2018-05-07T11:26:33.073Z,1013.74
2018-05-07T11:27:42.508Z,1013.72
2018-05-07T11:28:51.451Z,1013.72
2018-05-07T11:30:01.173Z,1013.76
2018-05-07T11:31:10.518Z,1013.7
2018-05-07T11:32:19.947Z,1013.71
2018-05-07T11:33:29.458Z,1013.64
2018-05-07T11:34:39.165Z,1013.64
2018-05-07T11:35:48.706Z,1013.59
2018-05-07T11:36:58.286Z,1013.61
2018-05-07T11:38:07.541Z,1013.7
2018-05-07T11:39:16.718Z,1013.56
2018-05-07T11:40:26.419Z,1013.65
2018-05-07T11:41:35.863Z,1013.68
2018-05-07T11:42:45.040Z,1013.69
2018-05-07T11:43:53.997Z,1013.58
2018-05-07T11:45:02.929Z,1013.57
2018-05-07T11:46:11.834Z,1013.62
2018-05-07T11:47:21.598Z,1013.58
2018-05-07T11:48:31.037Z,1013.55
2018-05-07T11:49:40.195Z,1013.55
2018-05-07T11:50:49.901Z,1013.55
2018-05-07T11:51:59.337Z,1013.56
2018-05-07T11:53:08.596Z,1013.55
2018-05-07T11:54:19.053Z,1013.53
2018-05-07T11:55:28.756Z,1013.52
2018-05-07T11:56:37.705Z,1013.53
2018-05-07T11:57:47.385Z,1013.52
2018-05-07T11:58:56.292Z,1013.48
2018-05-07T12:00:05.525Z,1013.42
2018-05-07T12:01:15.482Z,1013.47
2018-05-07T12:02:24.694Z,1013.44
2018-05-07T12:03:34.931Z,1013.46
2018-05-07T12:04:44.133Z,1013.47
2018-05-07T12:05:53.333Z,1013.55
2018-05-07T12:07:02.527Z,1013.47
2018-05-07T12:08:11.942Z,1013.4
2018-05-07T12:09:21.171Z,1013.41
2018-05-07T12:10:30.612Z,1013.36
2018-05-07T12:11:40.312Z,1013.38
2018-05-07T12:12:49.478Z,1013.34
2018-05-07T12:13:58.644Z,1013.33
2018-05-07T12:15:08.306Z,1013.32
2018-05-07T12:16:17.455Z,1013.32
2018-05-07T12:17:26.921Z,1013.29
2018-05-07T12:18:36.652Z,1013.25
2018-05-07T12:19:46.628Z,1013.34
2018-05-07T12:20:55.791Z,1013.38
2018-05-07T12:22:04.956Z,1013.24
2018-05-07T12:23:14.144Z,1013.31
2018-05-07T12:24:23.871Z,1013.32
2018-05-07T12:25:33.846Z,1013.31
2018-05-07T12:26:43.543Z,1013.25
2018-05-07T12:27:53.211Z,1013.27
2018-05-07T12:29:02.376Z,1013.24
2018-05-07T12:30:11.828Z,1013.28
2018-05-07T12:31:21.412Z,1013.21
2018-05-07T12:32:31.234Z,1013.2
2018-05-07T12:33:40.710Z,1013.15
2018-05-07T12:34:50.130Z,1013.09
2018-05-07T12:35:59.293Z,1013.12
2018-05-07T12:37:08.713Z,1013.21
2018-05-07T12:38:17.611Z,1013.13
2018-05-07T12:39:27.079Z,1013.14
2018-05-07T12:40:36.514Z,1013.07
2018-05-07T12:41:46.293Z,1013.07
2018-05-07T12:42:55.740Z,1013.07
2018-05-07T12:44:05.195Z,1013.02
2018-05-07T12:45:14.918Z,1013.05
2018-05-07T12:46:24.092Z,1013.01
2018-05-07T12:47:34.098Z,1012.95
2018-05-07T12:48:43.497Z,1012.88
2018-05-07T12:49:52.709Z,1012.87
2018-05-07T12:51:01.608Z,1012.93
2018-05-07T12:52:11.325Z,1012.9
2018-05-07T12:53:21.238Z,1012.84
2018-05-07T12:54:30.675Z,1012.8
2018-05-07T12:55:40.115Z,1012.82
2018-05-07T12:56:49.532Z,1012.78
2018-05-07T12:57:58.947Z,1012.76
2018-05-07T12:59:08.374Z,1012.8
2018-05-07T13:00:18.059Z,1012.71
2018-05-07T13:01:27.736Z,1012.72
2018-05-07T13:02:37.188Z,1012.7
2018-05-07T13:03:46.101Z,1012.71
2018-05-07T13:04:55.553Z,1012.74
2018-05-07T13:06:04.468Z,1012.71
2018-05-07T13:07:13.636Z,1012.71
2018-05-07T13:08:22.533Z,1012.7
2018-05-07T13:09:31.730Z,1012.72
2018-05-07T13:10:40.668Z,1012.69
2018-05-07T13:11:49.852Z,1012.67
2018-05-07T13:12:59.060Z,1012.67
2018-05-07T13:14:08.362Z,1012.66
2018-05-07T13:15:17.588Z,1012.65
2018-05-07T13:16:27.271Z,1012.57
2018-05-07T13:17:36.484Z,1012.57
2018-05-07T13:18:45.633Z,1012.57
2018-05-07T13:19:54.546Z,1012.54
2018-05-07T13:21:03.982Z,1012.47
2018-05-07T13:22:13.742Z,1012.55
2018-05-07T13:23:23.166Z,1012.55
2018-05-07T13:24:32.857Z,1012.48
2018-05-07T13:25:42.630Z,1012.47
2018-05-07T13:26:51.855Z,1012.45
2018-05-07T13:28:01.548Z,1012.48
2018-05-07T13:29:11.222Z,1012.52
2018-05-07T13:30:20.390Z,1012.54
2018-05-07T13:31:29.306Z,1012.57
2018-05-07T13:32:38.731Z,1012.45
2018-05-07T13:33:48.465Z,1012.46
2018-05-07T13:34:58.151Z,1012.44
2018-05-07T13:36:07.063Z,1012.4
2018-05-07T13:37:16.993Z,1012.42
2018-05-07T13:38:26.693Z,1012.36
2018-05-07T13:39:35.843Z,1012.39
2018-05-07T13:40:45.541Z,1012.34
2018-05-07T13:41:54.991Z,1012.39
2018-05-07T13:43:04.444Z,1012.38
2018-05-07T13:44:14.419Z,1012.27
2018-05-07T13:45:23.833Z,1012.26
2018-05-07T13:46:33.279Z,1012.28
2018-05-07T13:47:42.251Z,1012.26
2018-05-07T13:48:51.667Z,1012.25
2018-05-07T13:50:01.490Z,1012.18
2018-05-07T13:51:10.978Z,1012.17
2018-05-07T13:52:20.539Z,1012.13
2018-05-07T13:53:29.958Z,1012.14
2018-05-07T13:54:39.392Z,1012.15
2018-05-07T13:55:49.056Z,1012.15
2018-05-07T13:56:58.859Z,1012.11
2018-05-07T13:58:07.834Z,1012.06
2018-05-07T13:59:17.001Z,1012.05
2018-05-07T14:00:26.441Z,1012.01
2018-05-07T14:01:36.164Z,1011.95
2018-05-07T14:02:46.023Z,1011.93